• Join FlightAware (Why Join?)
  • Login
  • US Flag 
Trick or treat! (Boo!!) 
06:57PM EDT


 

Airport Tracker/Info


-or-


 

Live Flight TrackerFlight Track Log ✈ DAL1981 ✈ 05-May-2013 ✈ KALB - KATL

Flight Track Log - Related Links

Times and Time Zones

All times are in EDT time to prevent confusion due to time zone crossing. See the DAL1981 flight status page for this flight to view local times or setup timezone preferences in your user account.

Time Position Orientation Groundspeed Altitude Reporting Facility
EDT Latitude Longitude Course Direction KTS MPH feet Rate Location/Type
06:11AM 42.7256 -73.8053 180° South 154 177 1,600  Level Boston Center
06:11AM 42.7111 -73.8106 195° South 171 197 1,500 1,920 Descending Boston Center
06:12AM 42.7100 -73.8897 269° West 276 318 4,200 2,640 Climbing Boston Center
06:13AM 42.5088 -74.1379 200° South  Level Estimated
06:13AM 42.7572 -73.9531 315° West 278 320 6,800  Level Boston Center
06:14AM 42.4284 -74.2493 198° South  Level Estimated
06:14AM 42.7725 -74.0581 281° West 272 313 9,900  Level Boston Center
06:15AM 42.3480 -74.3605 180° South  Level Estimated
06:15AM 42.7789 -74.1883 274° West 302 348 11,300  Level Boston Center
06:16AM 42.2675 -74.4713 180° South  Level Estimated
06:16AM 42.7433 -74.3172 249° West 370 426 13,800  Level Boston Center
06:17AM 42.6644 -74.4167 223° Southwest 375 432 15,600 2,040 Climbing Boston Center
06:18AM 42.5592 -74.3625 159° South 324 373 17,900 1,860 Climbing Boston Center
06:19AM 42.4792 -74.2869 145° Southeast 348 400 19,400 1,500 Climbing Boston Center
06:20AM 42.3869 -74.1914 143° Southeast 385 443 21,200 1,680 Climbing Boston Center
06:21AM 42.2719 -74.0758 143° Southeast 420 483 23,200 1,620 Climbing Boston Center
06:22AM 42.1475 -74.0389 168° South 436 502 24,500 1,260 Climbing Boston Center
06:23AM 42.0139 -74.0494 183° South 442 509 25,800 1,440 Climbing Boston Center
06:25AM 41.7319 -73.9928 171° South 480 552 29,000 1,440 Climbing New York Center
06:26AM 41.6039 -73.9558 168° South 480 552 30,300 1,140 Climbing New York Center
06:27AM 41.4761 -73.9858 190° South 459 528 31,300 1,320 Climbing New York Center
06:28AM 41.3478 -74.0267 193° South 469 540 33,100 1,320 Climbing New York Center
06:29AM 41.2633 -74.1439 226° Southwest 425 489 34,000 360 Climbing New York Center
06:30AM 41.2322 -74.2858 254° West 411 473 33,900  Descending New York Center
06:31AM 41.1453 -74.4081 227° Southwest 438 504 34,000  Climbing New York Center
06:32AM 41.0519 -74.5269 224° Southwest 455 524 34,000  Level New York Center
06:33AM 40.9608 -74.6344 222° Southwest 455 524 34,000  Level New York Center
06:34AM 40.8694 -74.7528 224° Southwest 455 524 34,000  Level New York Center
06:35AM 40.7803 -74.8653 224° Southwest 455 524 34,000  Level New York Center
06:36AM 40.6886 -74.9803 224° Southwest 455 524 34,000  Level New York Center
06:37AM 40.5992 -75.0922 224° Southwest 450 518 34,000  Level New York Center
06:38AM 40.5075 -75.2067 224° Southwest 450 518 34,000  Level New York Center
06:39AM 40.4175 -75.3208 224° Southwest 450 518 34,000  Level New York Center
06:40AM 40.3278 -75.4347 224° Southwest 450 518 34,000  Level New York Center
06:41AM 40.2356 -75.5481 223° Southwest 450 518 34,000  Level New York Center
06:42AM 40.1636 -75.6789 234° Southwest 450 518 34,000  Level New York Center
06:43AM 40.0972 -75.8156 238° Southwest 450 518 34,000  Level New York Center
06:44AM 40.0228 -75.9511 234° Southwest 455 524 34,000  Level New York Center
06:45AM 39.9464 -76.0753 231° Southwest 455 524 34,000 -60 Level New York Center
06:47AM 39.8200 -76.2642 229° Southwest 457 526 33,900  Descending Washington Center
06:48AM 39.7464 -76.3822 231° Southwest 451 519 34,000  Climbing Washington Center
06:49AM 39.6644 -76.5053 229° Southwest 451 519 34,000  Level Washington Center
06:50AM 39.5736 -76.6361 228° Southwest 451 519 34,000  Level Washington Center
06:51AM 39.4956 -76.7561 230° Southwest 451 519 34,000  Level Washington Center
06:52AM 39.4172 -76.8783 230° Southwest 451 519 34,000  Level Washington Center
06:53AM 39.3408 -76.9950 230° Southwest 451 519 34,000  Level Washington Center
06:54AM 39.2600 -77.1194 230° Southwest 451 519 34,000  Level Washington Center
06:55AM 39.1814 -77.2383 230° Southwest 451 519 34,000  Level Washington Center
06:56AM 39.1028 -77.3542 229° Southwest 451 519 34,000  Level Washington Center
06:57AM 39.0258 -77.4700 229° Southwest 446 513 34,000  Level Washington Center
06:58AM 38.9447 -77.5881 229° Southwest 446 513 34,000  Level Washington Center
06:59AM 38.8697 -77.7033 230° Southwest 441 507 34,000  Level Washington Center
07:00AM 38.7992 -77.8078 229° Southwest 436 502 34,000  Level Washington Center
07:01AM 38.7219 -77.9225 229° Southwest 436 502 34,000  Level Washington Center
07:02AM 38.6447 -78.0372 229° Southwest 436 502 34,000  Level Washington Center
07:03AM 38.5650 -78.1539 229° Southwest 436 502 34,000  Level Washington Center
07:04AM 38.4875 -78.2681 229° Southwest 436 502 34,000  Level Washington Center
07:05AM 38.4078 -78.3817 228° Southwest 430 495 34,000  Level Washington Center
07:06AM 38.3300 -78.4981 230° Southwest 430 495 34,000  Level Washington Center
07:07AM 38.2542 -78.6114 230° Southwest 430 495 34,000  Level Washington Center
07:08AM 38.1742 -78.7244 228° Southwest 430 495 34,000  Level Washington Center
07:09AM 38.0958 -78.8397 229° Southwest 430 495 34,000  Level Washington Center
07:10AM 38.0156 -78.9522 228° Southwest 430 495 34,000  Level Washington Center
07:11AM 37.9308 -79.0722 228° Southwest 425 489 34,000  Level Washington Center
07:12AM 37.8506 -79.1842 228° Southwest 425 489 34,000  Level Washington Center
07:13AM 37.7700 -79.2933 227° Southwest 425 489 34,000  Level Washington Center
07:14AM 37.6981 -79.3922 227° Southwest 425 489 34,000  Level Washington Center
07:15AM 37.6106 -79.5136 228° Southwest 430 495 34,000  Level Washington Center
07:16AM 37.5364 -79.6119 226° Southwest 430 495 34,000  Level Washington Center
07:17AM 37.4492 -79.7278 227° Southwest 423 487 34,000  Level Washington Center
07:18AM 37.3678 -79.8461 229° Southwest 433 498 34,000  Level Washington Center
07:19AM 37.2911 -79.9489 227° Southwest 422 486 34,000  Level Washington Center
07:20AM 37.1672 -80.1111 226° Southwest 404 465 34,000  Level Atlanta Center
07:21AM 37.0994 -80.2058 228° Southwest 409 471 34,000  Level Atlanta Center
07:22AM 37.0214 -80.3083 226° Southwest 409 471 34,000  Level Atlanta Center
07:23AM 36.9472 -80.4106 228° Southwest 404 465 34,000  Level Atlanta Center
07:24AM 36.8708 -80.5125 227° Southwest 404 465 34,000  Level Atlanta Center
07:25AM 36.7886 -80.6200 226° Southwest 404 465 34,000  Level Atlanta Center
07:26AM 36.7242 -80.7056 227° Southwest 399 459 34,000  Level Atlanta Center
07:27AM 36.6436 -80.8125 227° Southwest 392 451 34,000  Level Atlanta Center
07:28AM 36.5692 -80.9136 228° Southwest 387 445 34,000  Level Atlanta Center
07:29AM 36.4944 -81.0147 227° Southwest 387 445 34,000  Level Atlanta Center
07:30AM 36.4197 -81.1131 227° Southwest 387 445 34,000  Level Atlanta Center
07:31AM 36.3447 -81.2111 226° Southwest 392 451 34,000  Level Atlanta Center
07:32AM 36.2700 -81.3117 227° Southwest 392 451 34,000  Level Atlanta Center
07:33AM 36.1947 -81.4067 226° Southwest 392 451 34,000  Level Atlanta Center
07:34AM 36.1197 -81.5069 227° Southwest 392 451 34,000  Level Atlanta Center
07:35AM 36.0447 -81.6067 227° Southwest 392 451 34,000  Level Atlanta Center
07:36AM 35.9714 -81.7014 226° Southwest 388 447 34,000  Level Atlanta Center
07:37AM 35.8958 -81.7958 225° Southwest 388 447 34,000  Level Atlanta Center
07:38AM 35.8206 -81.8900 225° Southwest 388 447 34,000  Level Atlanta Center
07:39AM 35.7469 -81.9842 226° Southwest 383 441 34,000  Level Atlanta Center
07:40AM 35.6711 -82.0731 224° Southwest 383 441 34,000  Level Atlanta Center
07:41AM 35.6014 -82.1511 222° Southwest 378 435 34,000  Level Atlanta Center
07:42AM 35.5236 -82.2397 223° Southwest 378 435 34,000  Level Atlanta Center
07:43AM 35.4475 -82.3281 223° Southwest 378 435 34,000  Level Atlanta Center
07:44AM 35.3781 -82.4289 230° Southwest 378 435 34,000 -900 Level Atlanta Center
07:45AM 35.3231 -82.5369 238° Southwest 383 441 32,300 -1,140 Descending Atlanta Center
07:46AM 35.2661 -82.6575 240° Southwest 394 453 31,800 -540 Descending Atlanta Center
07:47AM 35.2089 -82.7806 240° Southwest 414 476 31,300 -600 Descending Atlanta Center
07:48AM 35.1456 -82.8958 236° Southwest 421 484 30,600 -1,080 Descending Atlanta Center
07:49AM 35.0503 -82.9933 220° Southwest 403 464 29,200 -1,200 Descending Atlanta Center
07:50AM 34.9592 -83.0731 216° Southwest 403 464 28,300 -900 Descending Atlanta Center
07:51AM 34.8700 -83.1503 215° Southwest 403 464 27,500 -780 Descending Atlanta Center
07:52AM 34.7808 -83.2294 216° Southwest 403 464 26,800 -660 Descending Atlanta Center
07:53AM 34.6936 -83.3111 218° Southwest 403 464 26,200 -840 Descending Atlanta Center
07:54AM 34.6086 -83.3825 215° Southwest 397 457 25,200 -1,800 Descending Atlanta Center
07:55AM 34.5233 -83.4589 216° Southwest 390 449 22,700 -2,340 Descending Atlanta Center
07:56AM 34.4486 -83.5250 216° Southwest 384 442 20,600 -2,100 Descending Atlanta Center
07:57AM 34.3717 -83.5958 217° Southwest 374 430 18,500 -2,100 Descending Atlanta Center
07:58AM 34.2925 -83.6642 215° Southwest 355 409 16,400 -2,160 Descending Atlanta Center
07:59AM 34.2197 -83.7297 217° Southwest 341 392 14,200 -2,160 Descending Atlanta Center
08:00AM 34.1467 -83.7928 216° Southwest 334 384 12,100 -1,200 Descending Atlanta Center
08:01AM 34.0675 -83.8633 216° Southwest 334 384 11,900 -660 Descending Atlanta Center
08:02AM 34.0072 -83.9286 222° Southwest 316 364 10,800 -1,320 Descending Atlanta Center
08:03AM 33.9444 -83.9636 205° Southwest 276 318 9,300 -900 Descending Atlanta Center
08:04AM 33.8714 -83.9611 178° South 254 292 9,000 -660 Descending Atlanta Center
08:05AM 33.7964 -83.9589 179° South 259 298 8,000 -540 Descending Atlanta Center
08:06AM 33.7294 -83.9764 192° South 258 297 8,000 -540 Level Atlanta Center
08:07AM 33.6731 -84.0014 200° South 236 272 7,000 -720 Descending Atlanta Center
08:09AM 33.6333 -84.1000 244° Southwest 190 219 6,000 -660 Descending Atlanta TRACON
08:10AM 33.6333 -84.1667 270° West 194 223 5,200 -1,020 Descending Atlanta TRACON
08:11AM 33.6333 -84.2333 270° West 190 219 4,000 -1,140 Descending Atlanta TRACON
08:12AM 33.6333 -84.3000 270° West 192 221 2,800 -1,140 Descending Atlanta TRACON